x

Shumagin Islands - 85nm South Of Sand Point, Ak (46075) Wave Buoy

12:50pm - Sun 29th Mar 2015 All times are UTC.

  • Sig Wave height 8.2ft
  • Peak Period 13s
  • Average Period 7s
  • Wind
    13mph, 18mph gusts
  • Sea Temp 41°f
  • Air Temp 41°f
  • Sea Pressure 988.3mb

More Historic Weather Station data

Upgrade to MSW Pro to gain access to the past 30 days of data for over 8000 Wavebouys and Weather Stations around the globe.

Join Pro

Comparision Forecast

View Surf forecast
   
Sun 03/29 12:50pm 8ft 13s 7s 13 18 mph 988.3mb 41f 41f
11:50am 7ft 11s 7s 13 18 mph 988.1mb 41f 42f
10:50am 8ft 11s 7s 13 16 mph 987.7mb 41f 41f
9:50am 8ft 11s 7s 13 18 mph 987.4mb 41f 41f
8:50am 7ft 11s 6s 13 18 mph 987.1mb 41f 41f
7:50am 8ft 11s 7s 16 20 mph 986.9mb 41f 40f
6:50am 7ft 10s 6s 18 22 mph 986.6mb 41f 40f
5:50am 7.5ft 11s 6s 18 22 mph 986.3mb 41f 40f
4:50am 8ft 11s 6s 20 25 mph 985.9mb 42f 40f
3:50am 8.5ft 10s 7s 16 18 mph 985.4mb 42f 41f
2:50am 8ft 11s 7s 16 22 mph 985mb 42f 41f
1:50am 8.5ft 11s 8s 16 20 mph 985mb 42f 41f
12:50am 9ft 11s 8s 16 20 mph 985mb 42f 41f
Sat 03/28 11:50pm 9ft 10s 7s 16 20 mph 984.9mb 41f 42f
10:50pm 9ft 9s 7s 13 18 mph 984.9mb 41f 43f
9:50pm 9ft 10s 8s 13 16 mph 984.8mb 42f 42f
8:50pm 10ft 10s 8s 7 9 mph 984.6mb 41f 40f
7:50pm 9ft 11s 7s 16 20 mph 984mb 41f 40f
6:50pm 9ft 9s 7s 9 11 mph 983.4mb 41f 42f
5:50pm 9.5ft 10s 7s 9 11 mph 983mb 41f 41f
4:50pm 9.5ft 9s 6s 16 18 mph 982.4mb 41f 40f
3:50pm 10ft 9s 6s 20 25 mph 982.2mb 41f 38f
2:50pm 9ft 9s 6s 20 25 mph 981.9mb 41f 39f
1:50pm 8.5ft 9s 6s 18 22 mph 982.1mb 41f 39f
12:50pm 8ft 8s 6s 18 22 mph 982.3mb 41f 40f
11:50am 6ft 7s 5s 16 20 mph 982.5mb 41f 39f
10:50am 5.5ft 6s 5s 16 20 mph 982.5mb 42f 39f
9:50am 5ft 7s 5s 18 22 mph 982.6mb 42f 39f
8:50am 4.5ft 9s 5s 18 22 mph 982.8mb 42f 40f
7:50am 4.5ft 6s 5s 18 20 mph 983mb 42f 39f
6:50am 4.5ft 8s 5s 20 25 mph 983.1mb 42f 38f
5:50am 4.5ft 9s 5s 9 13 mph 983.2mb 42f 38f
4:50am 4.5ft 8s 5s 13 18 mph 983.1mb 42f 40f
3:50am 4.5ft 7s 5s 4 7 mph 983.2mb 42f 40f
2:50am 4.5ft 7s 5s 18 20 mph 983.1mb 42f 39f
1:50am 4.5ft 7s 5s 11 13 mph 983.4mb 42f 40f
12:50am 4.5ft 7s 5s 11 13 mph 983.8mb 42f 42f
Fri 03/27 11:50pm 5ft 7s 5s 11 13 mph 984mb 42f 42f
10:50pm 5ft 7s 5s 11 13 mph 984mb 41f 41f
9:50pm 5ft 9s 5s 13 16 mph 984mb 41f 41f
8:50pm 5ft 8s 5s 16 18 mph 983.8mb 41f 38f
7:50pm 5ft 8s 5s 16 18 mph 983.4mb 41f 39f
6:50pm 5ft 9s 5s 13 18 mph 983mb 41f 39f
5:50pm 5ft 7s 5s 13 16 mph 982.8mb 41f 38f
4:50pm 5.5ft 7s 5s 16 18 mph 982.6mb 41f 38f
3:50pm 5ft 6s 5s 18 20 mph 982.2mb 41f 38f
2:50pm 4.5ft 8s 6s 20 22 mph 982.1mb 41f 38f
1:50pm 4.5ft 8s 6s 4 7 mph 982.4mb 41f 38f
12:50pm 5ft 7s 6s 4 7 mph 982.4mb 41f 39f
11:50am 5ft 8s 6s 4 7 mph 982.8mb 41f 38f
10:50am 5ft 9s 6s 13 16 mph 982.8mb 42f 39f
9:50am 5ft 8s 6s 11 13 mph 983mb 42f 39f
8:50am 5ft 9s 6s 13 16 mph 983.1mb 42f 39f
7:50am 5ft 9s 6s 13 16 mph 983.2mb 42f 40f
6:50am 5ft 9s 6s 11 13 mph 983mb 42f 39f
5:50am 5ft 10s 6s 11 13 mph 982.8mb 42f 39f
4:50am 5ft 10s 6s 9 11 mph 982.4mb 42f 40f
3:50am 5ft 9s 6s 11 16 mph 982.1mb 42f 40f
2:50am 5.5ft 10s 6s 11 13 mph 982.1mb 42f 39f
1:50am 5.5ft 10s 6s 11 13 mph 982mb 42f 40f
12:50am 6ft 11s 6s 9 11 mph 982.1mb 41f 41f
Thu 03/26 11:50pm 6ft 10s 7s 9 11 mph 982.1mb 41f 40f
10:50pm 7ft 10s 7s 7 9 mph 982.2mb 41f 40f
9:50pm 7ft 10s 7s 11 13 mph 982.1mb 41f 40f
8:50pm 6.5ft 10s 7s 13 16 mph 981.9mb 41f 40f
7:50pm 7ft 11s 7s 13 16 mph 981.8mb 41f 40f
6:50pm 8ft 11s 7s 13 18 mph 981.5mb 41f 40f
5:50pm 7ft 10s 6s 18 20 mph 981.2mb 41f 40f
4:50pm 8ft 11s 7s 18 22 mph 980.9mb 41f 40f
3:50pm 7.5ft 11s 6s 16 18 mph 980.7mb 41f 40f
2:50pm 7.5ft 10s 6s 18 22 mph 980.4mb 41f 41f
1:50pm 8ft 10s 7s 18 20 mph 980.5mb 41f 40f
12:50pm 8.5ft 9s 7s 18 20 mph 980.6mb 42f 41f
11:50am 8ft 11s 7s 16 20 mph 980.8mb 42f 40f
10:50am 8.5ft 11s 6s 16 20 mph 980.7mb 42f 41f
9:50am 8.5ft 10s 7s 18 22 mph 980.7mb 42f 41f
8:50am 9ft 10s 7s 18 20 mph 980.6mb 42f 41f
7:50am 9.5ft 10s 7s 20 22 mph 980.1mb 42f 41f
6:50am 10ft 11s 7s 22 25 mph 979.9mb 42f 41f
5:50am 10ft 10s 7s 22 27 mph 979.4mb 42f 41f
4:50am 10ft 11s 7s 20 25 mph 979.4mb 42f 41f
3:50am 9.5ft 11s 7s 22 27 mph 979.4mb 42f 41f
2:50am 10ft 11s 7s 22 27 mph 979.2mb 42f 42f
1:50am 10ft 11s 7s 22 27 mph 979mb 42f 42f
12:50am 10ft 11s 7s 18 20 mph 979.2mb 42f 42f
Wed 03/25 11:50pm 11ft 11s 8s 16 20 mph 979.3mb 42f 42f
10:50pm 12.5ft 11s 9s 13 18 mph 979.5mb 42f 42f
9:50pm 11ft 11s 8s 9 11 mph 979.7mb 41f 42f
8:50pm 12ft 11s 8s 11 16 mph 979.6mb 41f 42f
7:50pm 11.5ft 11s 8s 11 13 mph 979.4mb 41f 42f
6:50pm 12ft 11s 8s 11 13 mph 979.2mb 41f 41f
5:50pm 13ft 11s 8s 16 18 mph 979mb 41f 41f
4:50pm 14ft 11s 8s 16 20 mph 978.9mb 41f 41f
3:50pm 14ft 11s 8s 18 20 mph 978.7mb 41f 41f
2:50pm 14ft 11s 8s 20 25 mph 978.6mb 41f 41f